Anne Sibum — C4YC2 — position and weather

sailwx.info

Track history (hours):
 
Tides and Currents Weather Stations Pressure Air Temp Water Temp Dewpoint Dewpoint Depression Visibility Wind Speed Wind Dir Waves Ship Positions

Anne Sibum

Last reported at 2014-Nov-29 05:33 UTC. Time now 2014-Nov-29 06:17 UTC.
Position N 54°00' E 008°17'.

Length 151 m; draft 8.3 m.

Type: Ship (hazmat cat A). MMSI: 209322000.

Date/timePositionNaut miles runAvg speedWind from/ knotsBaromVisibWave heightAir tempDewpointWater temp
2014-Nov-29 05:33N 54°00' E 008°17'1413.9
2014-Nov-29 04:33N 53°56' E 008°39'1110.7
2014-Nov-29 03:33N 53°51' E 008°54'9 8.9
2014-Nov-29 02:33N 53°54' E 009°09'1 1.3
2014-Nov-29 01:33N 53°54' E 009°10'2 1.5
2014-Nov-29 00:33N 53°56' E 009°12'7 6.9
2014-Nov-28 23:33N 54°01' E 009°18'7 7.0
2014-Nov-28 22:30N 54°09' E 009°21'6 6.6
2014-Nov-28 21:33N 54°11' E 009°31'6 6.1
2014-Nov-28 20:33N 54°16' E 009°38'5 5.4
2014-Nov-28 19:33N 54°20' E 009°44'6 5.9
2014-Nov-28 18:32N 54°21' E 009°54'5 5.2
2014-Nov-28 17:33N 54°22' E 010°02'4 3.5
2014-Nov-28 16:33N 54°22' E 010°08'6 5.6
2014-Nov-28 15:33N 54°27' E 010°14'1612.1
2014-Nov-28 14:16N 54°35' E 010°37'2813.9
2014-Nov-28 12:15N 54°32' E 011°25'1014.2
2014-Nov-28 11:33N 54°28' E 011°40'1414.1
2014-Nov-28 10:33N 54°27' E 012°05'2713.5
2014-Nov-28 08:33N 54°46' E 012°37'3614.5
2014-Nov-28 06:05N 54°59' E 013°35'814.5
2014-Nov-28 05:33N 55°02' E 013°48'1414.2
2014-Nov-28 04:33N 55°09' E 014°09'1414.5
2014-Nov-28 03:33N 55°20' E 014°25'1414.2
2014-Nov-28 02:33N 55°30' E 014°43'1414.2
2014-Nov-28 01:33N 55°38' E 015°04'35114.4
2014-Nov-27 01:08N 59°36' E 023°06'915.3
2014-Nov-27 00:34N 59°38' E 023°23'1515.1
2014-Nov-26 23:33N 59°43' E 023°52'3514.8
2014-Nov-26 21:12N 59°53' E 024°58'21 2.8
2014-Nov-26 13:31N 60°13' E 025°11'0 0.0
2014-Nov-26 12:31N 60°13' E 025°11'0 0.0
2014-Nov-26 11:33N 60°13' E 025°11'0 0.0
2014-Nov-26 10:33N 60°13' E 025°11'0 0.0
2014-Nov-26 09:29N 60°13' E 025°11'0 0.0
2014-Nov-26 08:32N 60°13' E 025°11'0 0.0
2014-Nov-26 07:31N 60°13' E 025°11'0 0.0
2014-Nov-26 06:31N 60°13' E 025°11'0 0.0
2014-Nov-26 05:33N 60°13' E 025°11'1 1.5
2014-Nov-26 04:33N 60°12' E 025°13'2913.2
2014-Nov-26 02:20N 59°46' E 024°47'1316.2
2014-Nov-26 01:33N 59°43' E 024°22'2316.1
2014-Nov-26 00:08N 59°36' E 023°39'1116.3
2014-Nov-25 23:26N 59°32' E 023°18'35516.2
2014-Nov-25 01:30N 55°33' E 015°09'1516.3
2014-Nov-25 00:33N 55°25' E 014°46'1616.0
2014-Nov-24 23:34N 55°14' E 014°26'1616.3
2014-Nov-24 22:33N 55°02' E 014°07'6816.3
2014-Nov-24 18:22N 54°35' E 012°19'1215.0
2014-Nov-24 17:33N 54°25' E 012°06'4815.9
2014-Nov-24 14:32N 54°34' E 010°44'1515.4
2014-Nov-24 13:33N 54°29' E 010°20'10 9.9
2014-Nov-24 12:33N 54°22' E 010°08'0 0.2
2014-Nov-24 11:33N 54°22' E 010°08'7 6.7
2014-Nov-24 10:33N 54°20' E 009°57'7 6.9
2014-Nov-24 09:33N 54°21' E 009°45'6 5.9
2014-Nov-24 08:33N 54°17' E 009°38'7 6.8
2014-Nov-24 07:31N 54°11' E 009°30'7 7.8
2014-Nov-24 06:33N 54°07' E 009°20'8 8.1
2014-Nov-24 05:34N 53°59' E 009°17'5 5.4
2014-Nov-24 04:34N 53°55' E 009°11'2 1.9
2014-Nov-24 03:34N 53°53' E 009°08'1010.2
2014-Nov-24 02:33N 53°50' E 008°52'1414.2
2014-Nov-24 01:33N 53°58' E 008°32'1514.7
2014-Nov-24 00:33N 53°59' E 008°07'9 8.8
2014-Nov-23 23:33N 53°52' E 007°58'1211.6
2014-Nov-23 22:34N 53°44' E 008°14'1110.8
2014-Nov-23 21:33N 53°38' E 008°28'3 3.4
2014-Nov-23 20:33N 53°35' E 008°32'0 0.0
2014-Nov-23 19:32N 53°35' E 008°32'0 0.0
2014-Nov-23 18:32N 53°35' E 008°32'0 0.0
2014-Nov-23 17:31N 53°35' E 008°32'0 0.0
2014-Nov-23 16:31N 53°35' E 008°32'0 0.0
2014-Nov-23 15:33N 53°35' E 008°32'0 0.0
2014-Nov-23 14:33N 53°35' E 008°32'0 0.0
2014-Nov-23 13:33N 53°35' E 008°32'0 0.0
2014-Nov-23 12:32N 53°35' E 008°32'0 0.0
2014-Nov-23 11:32N 53°35' E 008°32'0 0.5
2014-Nov-23 10:33N 53°35' E 008°31'0 0.0
2014-Nov-23 09:33N 53°35' E 008°31'0 0.0
2014-Nov-23 08:31N 53°35' E 008°31'0 0.0
2014-Nov-23 07:33N 53°35' E 008°31'0 0.0
2014-Nov-23 06:33N 53°35' E 008°31'0 0.0
2014-Nov-23 05:33N 53°35' E 008°31'7 7.2
2014-Nov-23 04:33N 53°40' E 008°22'1212.5
2014-Nov-23 03:33N 53°49' E 008°07'1110.7
2014-Nov-23 02:33N 53°56' E 007°53'1414.3
2014-Nov-23 01:33N 54°00' E 008°16'1515.3
2014-Nov-23 00:34N 53°55' E 008°41'1211.8
2014-Nov-22 23:34N 53°51' E 008°60'1110.7
2014-Nov-22 22:33N 53°52' E 009°18'1413.8
2014-Nov-22 21:33N 53°40' E 009°31'1413.6
2014-Nov-22 20:33N 53°33' E 009°50'3 3.1
2014-Nov-22 19:28N 53°32' E 009°56'0 0.0
2014-Nov-22 18:33N 53°32' E 009°56'0 0.0
2014-Nov-22 17:21N 53°32' E 009°56'0 0.0
2014-Nov-22 16:33N 53°32' E 009°56'0 0.0
2014-Nov-22 15:32N 53°32' E 009°56'0 0.0
2014-Nov-22 14:30N 53°32' E 009°56'0 0.0
2014-Nov-22 13:33N 53°32' E 009°56'1 0.6
2014-Nov-22 12:33N 53°32' E 009°55'1 1.4
2014-Nov-22 11:33N 53°32' E 009°57'0 0.0
2014-Nov-22 10:20N 53°32' E 009°57'0 0.0
2014-Nov-22 09:26N 53°32' E 009°57'0 0.0
2014-Nov-22 08:33N 53°32' E 009°57'1 1.1
2014-Nov-22 07:32N 53°32' E 009°55'0 0.0
2014-Nov-22 06:32N 53°32' E 009°55'0 0.0
2014-Nov-22 05:28N 53°32' E 009°55'0 0.0
2014-Nov-22 04:31N 53°32' E 009°55'0 0.0
2014-Nov-22 03:27N 53°32' E 009°55'0 0.0
2014-Nov-22 02:30N 53°32' E 009°55'0 0.0
2014-Nov-22 01:30N 53°32' E 009°55'0 0.0
2014-Nov-22 00:32N 53°32' E 009°55'0 0.0
2014-Nov-21 23:32N 53°32' E 009°55'0 0.0
2014-Nov-21 22:28N 53°32' E 009°55'0 0.0
2014-Nov-21 21:31N 53°32' E 009°55'0 0.0
2014-Nov-21 20:30N 53°32' E 009°55'0 0.0
2014-Nov-21 19:21N 53°32' E 009°55'0 0.0
2014-Nov-21 18:33N 53°32' E 009°55'0 0.0
2014-Nov-21 17:29N 53°32' E 009°55'1 0.6
2014-Nov-21 16:34N 53°32' E 009°55'2 2.1
2014-Nov-21 15:33N 53°30' E 009°56'0 0.0
2014-Nov-21 14:29N 53°30' E 009°56'0 0.0
2014-Nov-21 13:32N 53°30' E 009°56'0 0.0
2014-Nov-21 12:28N 53°30' E 009°56'0 0.0
2014-Nov-21 11:28N 53°30' E 009°56'0 0.0
2014-Nov-21 10:27N 53°30' E 009°56'0 0.0
2014-Nov-21 09:27N 53°30' E 009°56'0 0.0
2014-Nov-21 08:30N 53°30' E 009°56'0 0.1
2014-Nov-21 07:33N 53°30' E 009°56'3 2.6
2014-Nov-21 06:33N 53°32' E 009°55'3 3.1
2014-Nov-21 05:33N 53°33' E 009°50'4 4.2
2014-Nov-21 04:33N 53°34' E 009°43'9 9.3
2014-Nov-21 03:33N 53°40' E 009°31'1212.1
2014-Nov-21 02:33N 53°50' E 009°20'8 7.7
2014-Nov-21 01:33N 53°54' E 009°09'2 2.5
2014-Nov-21 00:33N 53°55' E 009°12'8 8.0
2014-Nov-20 23:33N 54°02' E 009°18'6 6.2
2014-Nov-20 22:33N 54°08' E 009°21'8 7.5
2014-Nov-20 21:33N 54°12' E 009°32'3 3.3
2014-Nov-20 20:33N 54°14' E 009°36'7 6.2
2014-Nov-20 19:29N 54°19' E 009°43'4 4.8
2014-Nov-20 18:33N 54°22' E 009°49'5 4.7
2014-Nov-20 17:34N 54°20' E 009°57'4 4.1
2014-Nov-20 16:33N 54°22' E 010°04'3 2.8
2014-Nov-20 15:33N 54°22' E 010°09'8 8.1
2014-Nov-20 14:33N 54°29' E 010°16'1212.4
2014-Nov-20 13:34N 54°34' E 010°35'2813.6
2014-Nov-20 11:30N 54°33' E 011°23'1313.9
2014-Nov-20 10:33N 54°27' E 011°44'1413.7
2014-Nov-20 09:33N 54°27' E 012°07'8712.3
2014-Nov-20 02:30N 54°38' E 014°36'1413.6
2014-Nov-20 01:26N 54°41' E 015°00'11113.7
2014-Nov-19 17:20N 54°55' E 018°11'1114.3
2014-Nov-19 16:33N 54°56' E 018°31'1414.2
2014-Nov-19 15:33N 54°49' E 018°53'1212.2
2014-Nov-19 14:33N 54°37' E 018°55'1212.1
2014-Nov-19 13:33N 54°32' E 018°36'3 3.2
2014-Nov-19 12:33N 54°33' E 018°31'0 0.0
2014-Nov-19 11:31N 54°33' E 018°31'0 0.0
2014-Nov-19 10:33N 54°33' E 018°31'0 0.0
2014-Nov-19 09:33N 54°33' E 018°31'0 0.0
2014-Nov-19 08:32N 54°33' E 018°31'0 0.0
2014-Nov-19 07:33N 54°33' E 018°31'0 0.0
2014-Nov-19 06:33N 54°33' E 018°31'0 0.0
2014-Nov-19 05:33N 54°33' E 018°31'  
Track history (hours):
 
Tides and Currents Weather Stations Pressure Air Temp Water Temp Dewpoint Dewpoint Depression Visibility Wind Speed Wind Dir Waves Ship Positions

Anne Sibum

Last reported at 2014-Nov-29 05:33 UTC. Time now 2014-Nov-29 06:17 UTC.
Position N 54°00' E 008°17'.

Length 151 m; draft 8.3 m.

Type: Ship (hazmat cat A). MMSI: 209322000.

Date/timePositionNaut miles runAvg speedWind from/ knotsBaromVisibWave heightAir tempDewpointWater temp
2014-Nov-29 05:33N 54°00' E 008°17'1413.9
2014-Nov-29 04:33N 53°56' E 008°39'1110.7
2014-Nov-29 03:33N 53°51' E 008°54'9 8.9
2014-Nov-29 02:33N 53°54' E 009°09'1 1.3
2014-Nov-29 01:33N 53°54' E 009°10'2 1.5
2014-Nov-29 00:33N 53°56' E 009°12'7 6.9
2014-Nov-28 23:33N 54°01' E 009°18'7 7.0
2014-Nov-28 22:30N 54°09' E 009°21'6 6.6
2014-Nov-28 21:33N 54°11' E 009°31'6 6.1
2014-Nov-28 20:33N 54°16' E 009°38'5 5.4
2014-Nov-28 19:33N 54°20' E 009°44'6 5.9
2014-Nov-28 18:32N 54°21' E 009°54'5 5.2
2014-Nov-28 17:33N 54°22' E 010°02'4 3.5
2014-Nov-28 16:33N 54°22' E 010°08'6 5.6
2014-Nov-28 15:33N 54°27' E 010°14'1612.1
2014-Nov-28 14:16N 54°35' E 010°37'2813.9
2014-Nov-28 12:15N 54°32' E 011°25'1014.2
2014-Nov-28 11:33N 54°28' E 011°40'1414.1
2014-Nov-28 10:33N 54°27' E 012°05'2713.5
2014-Nov-28 08:33N 54°46' E 012°37'3614.5
2014-Nov-28 06:05N 54°59' E 013°35'814.5
2014-Nov-28 05:33N 55°02' E 013°48'1414.2
2014-Nov-28 04:33N 55°09' E 014°09'1414.5
2014-Nov-28 03:33N 55°20' E 014°25'1414.2
2014-Nov-28 02:33N 55°30' E 014°43'1414.2
2014-Nov-28 01:33N 55°38' E 015°04'35114.4
2014-Nov-27 01:08N 59°36' E 023°06'915.3
2014-Nov-27 00:34N 59°38' E 023°23'1515.1
2014-Nov-26 23:33N 59°43' E 023°52'3514.8
2014-Nov-26 21:12N 59°53' E 024°58'21 2.8
2014-Nov-26 13:31N 60°13' E 025°11'0 0.0
2014-Nov-26 12:31N 60°13' E 025°11'0 0.0
2014-Nov-26 11:33N 60°13' E 025°11'0 0.0
2014-Nov-26 10:33N 60°13' E 025°11'0 0.0
2014-Nov-26 09:29N 60°13' E 025°11'0 0.0
2014-Nov-26 08:32N 60°13' E 025°11'0 0.0
2014-Nov-26 07:31N 60°13' E 025°11'0 0.0
2014-Nov-26 06:31N 60°13' E 025°11'0 0.0
2014-Nov-26 05:33N 60°13' E 025°11'1 1.5
2014-Nov-26 04:33N 60°12' E 025°13'2913.2
2014-Nov-26 02:20N 59°46' E 024°47'1316.2
2014-Nov-26 01:33N 59°43' E 024°22'2316.1
2014-Nov-26 00:08N 59°36' E 023°39'1116.3
2014-Nov-25 23:26N 59°32' E 023°18'35516.2
2014-Nov-25 01:30N 55°33' E 015°09'1516.3
2014-Nov-25 00:33N 55°25' E 014°46'1616.0
2014-Nov-24 23:34N 55°14' E 014°26'1616.3
2014-Nov-24 22:33N 55°02' E 014°07'6816.3
2014-Nov-24 18:22N 54°35' E 012°19'1215.0
2014-Nov-24 17:33N 54°25' E 012°06'4815.9
2014-Nov-24 14:32N 54°34' E 010°44'1515.4
2014-Nov-24 13:33N 54°29' E 010°20'10 9.9
2014-Nov-24 12:33N 54°22' E 010°08'0 0.2
2014-Nov-24 11:33N 54°22' E 010°08'7 6.7
2014-Nov-24 10:33N 54°20' E 009°57'7 6.9
2014-Nov-24 09:33N 54°21' E 009°45'6 5.9
2014-Nov-24 08:33N 54°17' E 009°38'7 6.8
2014-Nov-24 07:31N 54°11' E 009°30'7 7.8
2014-Nov-24 06:33N 54°07' E 009°20'8 8.1
2014-Nov-24 05:34N 53°59' E 009°17'5 5.4
2014-Nov-24 04:34N 53°55' E 009°11'2 1.9
2014-Nov-24 03:34N 53°53' E 009°08'1010.2
2014-Nov-24 02:33N 53°50' E 008°52'1414.2
2014-Nov-24 01:33N 53°58' E 008°32'1514.7
2014-Nov-24 00:33N 53°59' E 008°07'9 8.8
2014-Nov-23 23:33N 53°52' E 007°58'1211.6
2014-Nov-23 22:34N 53°44' E 008°14'1110.8
2014-Nov-23 21:33N 53°38' E 008°28'3 3.4
2014-Nov-23 20:33N 53°35' E 008°32'0 0.0
2014-Nov-23 19:32N 53°35' E 008°32'0 0.0
2014-Nov-23 18:32N 53°35' E 008°32'0 0.0
2014-Nov-23 17:31N 53°35' E 008°32'0 0.0
2014-Nov-23 16:31N 53°35' E 008°32'0 0.0
2014-Nov-23 15:33N 53°35' E 008°32'0 0.0
2014-Nov-23 14:33N 53°35' E 008°32'0 0.0
2014-Nov-23 13:33N 53°35' E 008°32'0 0.0
2014-Nov-23 12:32N 53°35' E 008°32'0 0.0
2014-Nov-23 11:32N 53°35' E 008°32'0 0.5
2014-Nov-23 10:33N 53°35' E 008°31'0 0.0
2014-Nov-23 09:33N 53°35' E 008°31'0 0.0
2014-Nov-23 08:31N 53°35' E 008°31'0 0.0
2014-Nov-23 07:33N 53°35' E 008°31'0 0.0
2014-Nov-23 06:33N 53°35' E 008°31'0 0.0
2014-Nov-23 05:33N 53°35' E 008°31'7 7.2
2014-Nov-23 04:33N 53°40' E 008°22'1212.5
2014-Nov-23 03:33N 53°49' E 008°07'1110.7
2014-Nov-23 02:33N 53°56' E 007°53'1414.3
2014-Nov-23 01:33N 54°00' E 008°16'1515.3
2014-Nov-23 00:34N 53°55' E 008°41'1211.8
2014-Nov-22 23:34N 53°51' E 008°60'1110.7
2014-Nov-22 22:33N 53°52' E 009°18'1413.8
2014-Nov-22 21:33N 53°40' E 009°31'1413.6
2014-Nov-22 20:33N 53°33' E 009°50'3 3.1
2014-Nov-22 19:28N 53°32' E 009°56'0 0.0
2014-Nov-22 18:33N 53°32' E 009°56'0 0.0
2014-Nov-22 17:21N 53°32' E 009°56'0 0.0
2014-Nov-22 16:33N 53°32' E 009°56'0 0.0
2014-Nov-22 15:32N 53°32' E 009°56'0 0.0
2014-Nov-22 14:30N 53°32' E 009°56'0 0.0
2014-Nov-22 13:33N 53°32' E 009°56'1 0.6
2014-Nov-22 12:33N 53°32' E 009°55'1 1.4
2014-Nov-22 11:33N 53°32' E 009°57'0 0.0
2014-Nov-22 10:20N 53°32' E 009°57'0 0.0
2014-Nov-22 09:26N 53°32' E 009°57'0 0.0
2014-Nov-22 08:33N 53°32' E 009°57'1 1.1
2014-Nov-22 07:32N 53°32' E 009°55'0 0.0
2014-Nov-22 06:32N 53°32' E 009°55'0 0.0
2014-Nov-22 05:28N 53°32' E 009°55'0 0.0
2014-Nov-22 04:31N 53°32' E 009°55'0 0.0
2014-Nov-22 03:27N 53°32' E 009°55'0 0.0
2014-Nov-22 02:30N 53°32' E 009°55'0 0.0
2014-Nov-22 01:30N 53°32' E 009°55'0 0.0
2014-Nov-22 00:32N 53°32' E 009°55'0 0.0
2014-Nov-21 23:32N 53°32' E 009°55'0 0.0
2014-Nov-21 22:28N 53°32' E 009°55'0 0.0
2014-Nov-21 21:31N 53°32' E 009°55'0 0.0
2014-Nov-21 20:30N 53°32' E 009°55'0 0.0
2014-Nov-21 19:21N 53°32' E 009°55'0 0.0
2014-Nov-21 18:33N 53°32' E 009°55'0 0.0
2014-Nov-21 17:29N 53°32' E 009°55'1 0.6
2014-Nov-21 16:34N 53°32' E 009°55'2 2.1
2014-Nov-21 15:33N 53°30' E 009°56'0 0.0
2014-Nov-21 14:29N 53°30' E 009°56'0 0.0
2014-Nov-21 13:32N 53°30' E 009°56'0 0.0
2014-Nov-21 12:28N 53°30' E 009°56'0 0.0
2014-Nov-21 11:28N 53°30' E 009°56'0 0.0
2014-Nov-21 10:27N 53°30' E 009°56'0 0.0
2014-Nov-21 09:27N 53°30' E 009°56'0 0.0
2014-Nov-21 08:30N 53°30' E 009°56'0 0.1
2014-Nov-21 07:33N 53°30' E 009°56'3 2.6
2014-Nov-21 06:33N 53°32' E 009°55'3 3.1
2014-Nov-21 05:33N 53°33' E 009°50'4 4.2
2014-Nov-21 04:33N 53°34' E 009°43'9 9.3
2014-Nov-21 03:33N 53°40' E 009°31'1212.1
2014-Nov-21 02:33N 53°50' E 009°20'8 7.7
2014-Nov-21 01:33N 53°54' E 009°09'2 2.5
2014-Nov-21 00:33N 53°55' E 009°12'8 8.0
2014-Nov-20 23:33N 54°02' E 009°18'6 6.2
2014-Nov-20 22:33N 54°08' E 009°21'8 7.5
2014-Nov-20 21:33N 54°12' E 009°32'3 3.3
2014-Nov-20 20:33N 54°14' E 009°36'7 6.2
2014-Nov-20 19:29N 54°19' E 009°43'4 4.8
2014-Nov-20 18:33N 54°22' E 009°49'5 4.7
2014-Nov-20 17:34N 54°20' E 009°57'4 4.1
2014-Nov-20 16:33N 54°22' E 010°04'3 2.8
2014-Nov-20 15:33N 54°22' E 010°09'8 8.1
2014-Nov-20 14:33N 54°29' E 010°16'1212.4
2014-Nov-20 13:34N 54°34' E 010°35'2813.6
2014-Nov-20 11:30N 54°33' E 011°23'1313.9
2014-Nov-20 10:33N 54°27' E 011°44'1413.7
2014-Nov-20 09:33N 54°27' E 012°07'8712.3
2014-Nov-20 02:30N 54°38' E 014°36'1413.6
2014-Nov-20 01:26N 54°41' E 015°00'11113.7
2014-Nov-19 17:20N 54°55' E 018°11'1114.3
2014-Nov-19 16:33N 54°56' E 018°31'1414.2
2014-Nov-19 15:33N 54°49' E 018°53'1212.2
2014-Nov-19 14:33N 54°37' E 018°55'1212.1
2014-Nov-19 13:33N 54°32' E 018°36'3 3.2
2014-Nov-19 12:33N 54°33' E 018°31'0 0.0
2014-Nov-19 11:31N 54°33' E 018°31'0 0.0
2014-Nov-19 10:33N 54°33' E 018°31'0 0.0
2014-Nov-19 09:33N 54°33' E 018°31'0 0.0
2014-Nov-19 08:32N 54°33' E 018°31'0 0.0
2014-Nov-19 07:33N 54°33' E 018°31'0 0.0
2014-Nov-19 06:33N 54°33' E 018°31'0 0.0
2014-Nov-19 05:33N 54°33' E 018°31'  

Dump ship's entire track history